Time;durP1;ratioP1;P1;durP2;ratioP2;P2;SDS_P1;SDS_P2;PMS_P1;PMS_P2;Temp;Humidity;BMP_temperature;BMP_pressure;BME280_temperature;BME280_humidity;BME280_pressure;Samples;Min_cycle;Max_cycle;Signal;HPM_P1;HPM_P2
2021/05/16 00:01:30;;;;;;;5.40;1.33;;;;;;;9.67;83.94;95224.81;5018124;28;20447;-88
2021/05/16 00:03:56;;;;;;;2.00;0.80;;;;;;;9.64;83.74;95230.63;5018774;28;20458;-88
2021/05/16 00:06:22;;;;;;;1.80;0.73;;;;;;;9.67;83.91;95221.41;5017176;28;20471;-90
2021/05/16 00:08:48;;;;;;;1.47;0.90;;;;;;;9.76;83.70;95228.09;5017311;28;20480;-90
2021/05/16 00:11:14;;;;;;;2.80;1.03;;;;;;;9.72;83.69;95227.78;5022042;28;20458;-90
2021/05/16 00:13:41;;;;;;;3.93;1.83;;;;;;;9.65;83.88;95229.31;5030932;28;20456;-89
2021/05/16 00:16:08;;;;;;;2.30;1.13;;;;;;;9.74;83.64;95230.66;5020245;28;20537;-90
2021/05/16 00:18:34;;;;;;;1.70;1.00;;;;;;;9.67;84.33;95226.78;5017073;28;20514;-89
2021/05/16 00:21:01;;;;;;;2.80;0.90;;;;;;;9.75;83.47;95227.38;5017468;28;20422;-90
2021/05/16 00:23:27;;;;;;;2.50;1.00;;;;;;;9.76;83.55;95228.09;5017538;28;20429;-89
2021/05/16 00:26:05;;;;;;;4.50;0.83;;;;;;;9.73;83.28;95237.31;5017538;28;20415;-88
2021/05/16 00:28:31;;;;;;;6.97;1.27;;;;;;;9.75;83.63;95227.38;5017083;28;20506;-88
2021/05/16 00:30:59;;;;;;;1.43;0.70;;;;;;;9.77;83.38;95227.56;5016618;28;20575;-89
2021/05/16 00:33:25;;;;;;;5.70;1.47;;;;;;;9.72;83.82;95230.47;5016808;28;20557;-87
2021/05/16 00:35:51;;;;;;;6.07;1.20;;;;;;;9.72;84.23;95233.19;5017039;28;20452;-87
2021/05/16 00:38:17;;;;;;;2.77;1.50;;;;;;;9.83;83.75;95232.66;5016776;28;20476;-89
2021/05/16 00:40:43;;;;;;;1.40;0.90;;;;;;;9.85;83.70;95240.88;5016730;28;20444;-89
2021/05/16 00:43:10;;;;;;;2.40;0.87;;;;;;;9.89;83.28;95231.13;5016984;28;20431;-89
2021/05/16 00:45:36;;;;;;;5.90;1.00;;;;;;;9.95;83.54;95234.25;5016775;28;20453;-88
2021/05/16 00:48:06;;;;;;;3.23;1.23;;;;;;;9.98;83.32;95233.13;5016501;28;20447;-89
2021/05/16 00:50:36;;;;;;;3.23;1.10;;;;;;;9.97;83.51;95231.00;5016428;28;20549;-89
2021/05/16 00:53:03;;;;;;;2.80;1.20;;;;;;;9.93;84.16;95228.03;5017552;28;20511;-89
2021/05/16 00:55:29;;;;;;;4.60;1.27;;;;;;;9.93;84.25;95228.03;5016733;28;20458;-88
2021/05/16 00:57:55;;;;;;;1.80;1.13;;;;;;;10.03;83.58;95223.34;5017348;28;20888;-90
2021/05/16 01:00:25;;;;;;;2.23;1.00;;;;;;;9.95;84.42;95220.78;5017012;28;21031;-89
2021/05/16 01:02:51;;;;;;;3.17;0.80;;;;;;;10.00;84.16;95219.81;5023796;28;20448;-88
2021/05/16 01:05:19;;;;;;;5.07;1.40;;;;;;;9.97;84.15;95212.84;5038983;28;20407;-89
2021/05/16 01:07:46;;;;;;;2.90;1.40;;;;;;;9.97;84.01;95209.44;5038059;28;20484;-88
2021/05/16 01:10:13;;;;;;;1.53;1.00;;;;;;;9.94;83.98;95205.19;5032468;28;20480;-87
2021/05/16 01:12:42;;;;;;;4.77;2.07;;;;;;;9.96;84.14;95203.34;5038327;28;20516;-88
2021/05/16 01:15:11;;;;;;;4.40;1.33;;;;;;;10.01;83.73;95210.47;5036036;28;20415;-87
2021/05/16 01:17:38;;;;;;;5.43;1.37;;;;;;;9.98;84.01;95211.59;5027679;28;20498;-88
2021/05/16 01:20:06;;;;;;;3.33;0.80;;;;;;;9.98;83.42;95205.47;5026601;28;20535;-88
2021/05/16 01:22:33;;;;;;;1.87;1.03;;;;;;;10.02;83.55;95208.47;5034910;28;20517;-87
2021/05/16 01:24:59;;;;;;;3.90;1.70;;;;;;;10.05;83.14;95216.16;5021628;28;20419;-88
2021/05/16 01:27:26;;;;;;;2.23;1.30;;;;;;;10.03;83.41;95210.59;5016540;28;21014;-88
2021/05/16 01:29:52;;;;;;;4.33;1.40;;;;;;;10.00;83.66;95211.00;5016483;28;20819;-88
2021/05/16 01:32:21;;;;;;;5.17;1.30;;;;;;;10.03;83.42;95210.59;5016333;28;20456;-87
2021/05/16 01:34:47;;;;;;;4.00;1.20;;;;;;;10.04;83.20;95205.91;5016133;28;20490;-88
2021/05/16 01:37:17;;;;;;;2.77;1.13;;;;;;;10.14;82.91;95215.47;5015933;28;20476;-88
2021/05/16 01:39:45;;;;;;;4.93;1.10;;;;;;;10.09;82.81;95210.31;5016009;28;20857;-88
2021/05/16 01:42:11;;;;;;;4.50;1.03;;;;;;;10.04;83.32;95219.38;5016004;28;20431;-90
2021/05/16 01:44:38;;;;;;;5.23;1.70;;;;;;;10.09;83.86;95219.13;5016223;28;20840;-89
2021/05/16 01:47:05;;;;;;;5.30;1.07;;;;;;;10.08;84.19;95223.09;5016265;28;20434;-89
2021/05/16 01:49:39;;;;;;;4.13;1.30;;;;;;;10.08;84.94;95212.31;5015821;28;20510;-88
2021/05/16 01:52:06;;;;;;;2.10;0.97;;;;;;;10.15;85.52;95205.38;5015791;28;20499;-89
2021/05/16 01:54:33;;;;;;;1.97;1.37;;;;;;;10.11;87.03;95207.78;5015761;28;20419;-86
2021/05/16 01:57:00;;;;;;;4.73;1.50;;;;;;;10.13;88.00;95210.63;5016044;28;20422;-88
2021/05/16 01:59:26;;;;;;;2.33;1.30;;;;;;;10.02;89.13;95203.09;5015765;28;20427;-88
2021/05/16 02:01:57;;;;;;;2.70;1.20;;;;;;;9.96;89.95;95205.34;5016165;28;20611;-88
2021/05/16 02:04:25;;;;;;;2.70;1.47;;;;;;;10.01;89.83;95212.44;5015474;28;20414;-88
2021/05/16 02:06:51;;;;;;;3.40;1.43;;;;;;;9.97;90.60;95209.44;5016367;28;20422;-88
2021/05/16 02:09:18;;;;;;;2.80;1.50;;;;;;;9.94;90.47;95200.50;5016343;28;20444;-89
2021/05/16 02:11:44;;;;;;;8.43;1.57;;;;;;;9.94;90.97;95200.50;5016153;28;20446;-89
2021/05/16 02:14:11;;;;;;;3.53;1.60;;;;;;;9.92;91.25;95205.75;5017478;28;20527;-90
2021/05/16 02:16:38;;;;;;;2.60;1.17;;;;;;;10.04;90.84;95205.91;5017769;28;20527;-88
2021/05/16 02:19:05;;;;;;;5.73;1.70;;;;;;;10.00;90.59;95208.31;5020699;28;20472;-88
2021/05/16 02:21:31;;;;;;;4.10;1.60;;;;;;;9.97;91.11;95204.75;5039971;28;20457;-88
2021/05/16 02:23:57;;;;;;;6.40;1.90;;;;;;;9.96;91.55;95211.41;5023168;28;20545;-89
2021/05/16 02:26:23;;;;;;;5.23;1.60;;;;;;;9.95;91.32;95199.25;5019584;28;20422;-89
2021/05/16 02:28:49;;;;;;;2.90;1.60;;;;;;;9.95;91.83;95204.63;5019752;28;20438;-88
2021/05/16 02:31:19;;;;;;;3.03;1.73;;;;;;;9.90;92.18;95204.91;5019291;28;20583;-89
2021/05/16 02:33:45;;;;;;;4.90;1.70;;;;;;;9.94;93.13;95202.47;5020051;28;20474;-88
2021/05/16 02:36:11;;;;;;;3.50;1.30;;;;;;;9.83;93.74;95200.34;5018885;28;20434;-88
2021/05/16 02:38:37;;;;;;;3.70;1.60;;;;;;;9.83;94.24;95205.72;5019399;28;20472;-88
2021/05/16 02:41:03;;;;;;;2.27;1.67;;;;;;;9.90;94.33;95200.19;5018849;28;20418;-88
2021/05/16 02:43:30;;;;;;;3.60;1.40;;;;;;;9.94;94.25;95205.19;5019095;28;20511;-88
2021/05/16 02:45:57;;;;;;;4.17;1.80;;;;;;;9.96;93.68;95210.72;5019410;28;20410;-88
2021/05/16 02:48:23;;;;;;;2.97;1.37;;;;;;;9.99;93.76;95206.91;5018449;28;20463;-88
2021/05/16 02:50:50;;;;;;;3.37;1.63;;;;;;;9.94;93.89;95203.19;5018401;28;20462;-88
2021/05/16 02:53:20;;;;;;;3.67;1.40;;;;;;;9.93;94.44;95209.16;5018460;28;20450;-88
2021/05/16 02:55:46;;;;;;;4.53;1.53;;;;;;;9.86;95.07;95208.00;5018855;28;20428;-88
2021/05/16 02:58:13;;;;;;;5.60;1.47;;;;;;;9.91;94.59;95217.09;5018465;28;20447;-88
2021/05/16 03:00:39;;;;;;;2.77;1.33;;;;;;;9.87;94.62;95203.31;5018011;28;20920;-88
2021/05/16 03:03:05;;;;;;;6.50;1.30;;;;;;;9.82;95.39;95199.63;5018174;28;20507;-88
2021/05/16 03:05:32;;;;;;;5.73;1.80;;;;;;;9.83;95.49;95205.72;5018321;28;20411;-89
2021/05/16 03:07:59;;;;;;;2.33;1.27;;;;;;;9.92;95.13;95194.97;5018684;28;20438;-89
2021/05/16 03:10:25;;;;;;;2.70;1.17;;;;;;;9.92;95.43;95191.56;5018679;28;20615;-88
2021/05/16 03:12:51;;;;;;;1.73;1.30;;;;;;;9.92;94.36;95192.28;5018288;28;20539;-89
2021/05/16 03:15:18;;;;;;;2.67;1.57;;;;;;;9.97;94.94;95187.88;5018328;28;20443;-88
2021/05/16 03:17:44;;;;;;;4.00;1.77;;;;;;;9.97;94.35;95196.69;5017958;28;20495;-90
2021/05/16 03:20:12;;;;;;;3.63;1.53;;;;;;;9.93;94.99;95193.69;5017572;28;20414;-89
2021/05/16 03:22:39;;;;;;;4.13;1.60;;;;;;;9.99;94.73;95193.44;5018134;28;20407;-89
2021/05/16 03:25:07;;;;;;;6.70;1.80;;;;;;;10.04;94.80;95192.44;5017868;28;20487;-89
2021/05/16 03:27:33;;;;;;;2.70;1.23;;;;;;;10.04;94.08;95192.44;5018318;28;20435;-89
2021/05/16 03:29:59;;;;;;;2.60;1.70;;;;;;;9.99;94.07;95188.03;5017873;28;20506;-89
2021/05/16 03:32:25;;;;;;;3.73;1.27;;;;;;;9.92;94.22;95192.28;5017473;28;20422;-88
2021/05/16 03:34:51;;;;;;;3.50;1.60;;;;;;;9.94;94.67;95189.00;5018130;28;20511;-88
2021/05/16 03:37:19;;;;;;;3.00;1.43;;;;;;;10.06;94.10;95182.50;5017838;28;20959;-88
2021/05/16 03:39:46;;;;;;;3.53;1.60;;;;;;;9.96;94.25;95191.88;5017568;28;20647;-89
2021/05/16 03:42:12;;;;;;;2.90;1.40;;;;;;;9.97;94.17;95185.19;5017844;28;20427;-88
2021/05/16 03:44:38;;;;;;;3.57;1.63;;;;;;;10.00;94.65;95200.22;5017821;28;20448;-88
2021/05/16 03:47:04;;;;;;;1.73;1.10;;;;;;;9.99;94.42;95196.81;5017625;28;20860;-88
2021/05/16 03:49:30;;;;;;;1.30;1.20;;;;;;;10.07;94.36;95202.81;5018238;28;20960;-88
2021/05/16 03:51:56;;;;;;;4.00;1.50;;;;;;;10.10;93.73;95193.59;5018761;28;20431;-88
2021/05/16 03:54:22;;;;;;;3.80;1.13;;;;;;;10.11;94.09;95195.03;5034224;28;20590;-88
2021/05/16 03:56:49;;;;;;;5.00;1.40;;;;;;;10.13;92.99;95192.50;5019295;28;20450;-88
2021/05/16 03:59:15;;;;;;;2.33;1.30;;;;;;;10.11;93.30;95189.63;5018069;28;20483;-89
2021/05/16 04:01:41;;;;;;;1.50;1.20;;;;;;;10.11;92.83;95191.59;5017811;28;20411;-89
2021/05/16 04:04:08;;;;;;;3.20;1.17;;;;;;;10.12;93.48;95199.13;5017602;28;20418;-89
2021/05/16 04:06:34;;;;;;;2.10;1.30;;;;;;;10.18;92.91;95196.88;5017716;28;20523;-88
2021/05/16 04:09:00;;;;;;;2.57;1.67;;;;;;;10.17;92.72;95202.84;5017913;28;20565;-88
2021/05/16 04:11:26;;;;;;;5.50;1.40;;;;;;;10.29;92.40;95206.41;5017824;28;20547;-89
2021/05/16 04:13:53;;;;;;;1.43;1.00;;;;;;;10.31;92.03;95203.13;5018580;28;20448;-89
2021/05/16 04:16:19;;;;;;;1.73;0.93;;;;;;;10.26;91.80;95207.53;5018052;28;20434;-90
2021/05/16 04:18:45;;;;;;;1.70;1.00;;;;;;;10.24;92.47;95199.31;5017500;28;20443;-89
2021/05/16 04:21:11;;;;;;;2.70;1.27;;;;;;;10.26;92.06;95199.47;5017632;28;20426;-88
2021/05/16 04:23:38;;;;;;;5.73;1.53;;;;;;;10.32;92.08;95207.25;5017862;28;20421;-89
2021/05/16 04:26:04;;;;;;;6.10;1.50;;;;;;;10.27;92.03;95195.50;5017578;28;20916;-89
2021/05/16 04:28:30;;;;;;;5.33;1.40;;;;;;;10.31;92.37;95195.03;5017679;28;20468;-89
2021/05/16 04:30:58;;;;;;;1.50;1.10;;;;;;;10.24;92.51;95198.59;5017480;28;20566;-88
2021/05/16 04:33:24;;;;;;;2.20;1.20;;;;;;;10.30;92.49;95193.66;5017142;28;20426;-90
2021/05/16 04:35:50;;;;;;;4.87;0.97;;;;;;;10.19;93.22;95195.63;5017882;28;20514;-89
2021/05/16 04:38:16;;;;;;;1.70;1.00;;;;;;;10.26;93.18;95201.44;5017293;28;20979;-89
2021/05/16 04:40:45;;;;;;;2.50;1.10;;;;;;;10.27;93.00;95192.78;5017860;28;20511;-89
2021/05/16 04:43:12;;;;;;;4.43;1.30;;;;;;;10.30;93.02;95193.66;5017750;28;20432;-89
2021/05/16 04:45:38;;;;;;;1.63;1.10;;;;;;;10.33;92.74;95198.63;5017615;28;20441;-88
2021/05/16 04:48:06;;;;;;;2.00;0.90;;;;;;;10.31;92.99;95200.44;5017881;28;20871;-89
2021/05/16 04:50:32;;;;;;;3.67;0.70;;;;;;;10.27;93.01;95200.16;5016418;28;20458;-89
2021/05/16 04:52:58;;;;;;;1.47;0.90;;;;;;;10.35;92.73;95204.16;5016842;28;20531;-88
2021/05/16 04:55:24;;;;;;;2.67;1.10;;;;;;;10.34;92.90;95199.34;5017274;28;20509;-88
2021/05/16 04:57:50;;;;;;;4.43;1.00;;;;;;;10.32;92.30;95194.50;5016512;28;20437;-87
2021/05/16 05:00:18;;;;;;;2.10;1.17;;;;;;;10.32;92.26;95191.78;5017078;28;20509;-89
2021/05/16 05:02:46;;;;;;;1.33;0.83;;;;;;;10.33;92.62;95198.63;5017216;28;20444;-88
2021/05/16 05:05:14;;;;;;;1.40;1.30;;;;;;;10.41;92.86;95201.88;5017395;28;20438;-88
2021/05/16 05:07:41;;;;;;;2.70;1.20;;;;;;;10.51;91.95;95205.28;5016743;28;20500;-89
2021/05/16 05:10:08;;;;;;;5.03;0.87;;;;;;;10.58;91.73;95209.84;5016606;28;20895;-88
2021/05/16 05:12:35;;;;;;;2.10;1.03;;;;;;;10.64;91.93;95207.56;5015672;28;20963;-88
2021/05/16 05:15:02;;;;;;;2.00;0.70;;;;;;;10.66;91.75;95215.78;5017316;28;20478;-89
2021/05/16 05:17:28;;;;;;;2.00;0.97;;;;;;;10.82;90.58;95210.81;5017541;28;20795;-89
2021/05/16 05:19:54;;;;;;;1.30;0.70;;;;;;;10.88;89.78;95211.25;5017538;28;20426;-89
2021/05/16 05:22:21;;;;;;;5.17;1.00;;;;;;;10.81;90.31;95203.31;5017563;28;20452;-89
2021/05/16 05:24:47;;;;;;;1.77;0.83;;;;;;;10.84;90.43;95213.66;5016611;28;20423;-89
2021/05/16 05:27:13;;;;;;;2.03;0.80;;;;;;;10.90;90.02;95210.69;5016620;28;20471;-89
2021/05/16 05:29:39;;;;;;;4.83;0.87;;;;;;;10.84;90.35;95218.34;5016384;28;20475;-89
2021/05/16 05:32:06;;;;;;;2.30;1.00;;;;;;;10.89;89.93;95228.16;5016665;28;20449;-89
2021/05/16 05:34:32;;;;;;;1.17;0.73;;;;;;;10.92;89.19;95213.50;5016368;28;20447;-88
2021/05/16 05:36:58;;;;;;;1.70;0.77;;;;;;;10.87;89.59;95217.91;5018963;28;20456;-89
2021/05/16 05:39:25;;;;;;;5.50;1.30;;;;;;;10.83;90.22;95223.03;5017593;28;20911;-89
2021/05/16 05:41:51;;;;;;;1.37;0.90;;;;;;;10.75;91.29;95225.16;5016066;28;20506;-90
2021/05/16 05:44:17;;;;;;;1.43;0.77;;;;;;;10.68;92.46;95224.03;5016898;28;20547;-89
2021/05/16 05:46:43;;;;;;;2.13;1.00;;;;;;;10.75;92.73;95223.19;5016731;28;20446;-89
2021/05/16 05:49:09;;;;;;;1.27;0.60;;;;;;;10.84;92.17;95216.34;5015719;28;21114;-89
2021/05/16 05:51:35;;;;;;;1.30;0.73;;;;;;;10.86;92.46;95213.09;5016147;28;20489;-89
2021/05/16 05:54:02;;;;;;;1.17;0.77;;;;;;;10.87;92.36;95220.59;5015784;28;20539;-89
2021/05/16 05:56:29;;;;;;;1.57;0.90;;;;;;;10.77;92.67;95212.50;5016773;28;20425;-89
2021/05/16 05:58:55;;;;;;;2.30;0.70;;;;;;;10.85;91.72;95214.38;5015773;28;20434;-89
2021/05/16 06:01:21;;;;;;;1.37;1.00;;;;;;;10.91;92.03;95220.19;5015543;28;20421;-89
2021/05/16 06:03:48;;;;;;;2.93;0.70;;;;;;;10.96;91.57;95222.59;5016421;28;20433;-89
2021/05/16 06:06:15;;;;;;;2.03;1.00;;;;;;;11.00;91.41;95224.84;5016229;28;20474;-89
2021/05/16 06:08:41;;;;;;;1.90;1.07;;;;;;;11.08;91.27;95225.44;5015948;28;20508;-90
2021/05/16 06:11:07;;;;;;;2.10;0.97;;;;;;;11.17;91.61;95228.09;5024232;28;21171;-89
2021/05/16 06:13:34;;;;;;;3.20;1.00;;;;;;;11.22;90.68;95232.50;5016012;28;20813;-89
2021/05/16 06:16:00;;;;;;;2.70;0.70;;;;;;;11.24;89.75;95234.63;5015678;28;20462;-89
2021/05/16 06:18:26;;;;;;;1.80;0.90;;;;;;;11.38;89.55;95229.47;5016726;28;20497;-90
2021/05/16 06:20:52;;;;;;;3.70;1.50;;;;;;;11.35;89.32;95231.34;5016506;28;20539;-90
2021/05/16 06:23:19;;;;;;;0.70;0.70;;;;;;;11.50;89.43;95235.69;5016064;28;20890;-90
2021/05/16 06:25:45;;;;;;;3.27;0.90;;;;;;;11.78;88.67;95237.59;5015891;28;20937;-89
2021/05/16 06:28:12;;;;;;;2.20;1.00;;;;;;;12.54;86.84;95233.78;5016089;28;20449;-89
2021/05/16 06:30:39;;;;;;;1.60;0.73;;;;;;;13.68;81.43;95234.06;5015820;28;20458;-89
2021/05/16 06:33:05;;;;;;;1.90;0.60;;;;;;;14.85;76.72;95229.88;5015660;28;20442;-89
2021/05/16 06:35:31;;;;;;;1.33;0.73;;;;;;;15.65;71.04;95237.53;5015717;28;20479;-89
2021/05/16 06:37:57;;;;;;;1.10;0.90;;;;;;;15.62;70.30;95236.03;5016252;28;20503;-88
2021/05/16 06:40:23;;;;;;;3.73;0.80;;;;;;;15.39;70.57;95245.72;5015119;28;20527;-87
2021/05/16 06:42:50;;;;;;;2.60;0.90;;;;;;;15.11;71.46;95235.34;5015808;28;20464;-87
2021/05/16 06:45:16;;;;;;;1.70;0.70;;;;;;;15.27;71.14;95238.91;5015570;28;20443;-89
2021/05/16 06:47:43;;;;;;;2.13;0.63;;;;;;;15.73;70.00;95244.09;5015565;28;20499;-87
2021/05/16 06:50:10;;;;;;;1.10;0.87;;;;;;;15.69;69.19;95246.63;5015385;28;20518;-88
2021/05/16 06:52:37;;;;;;;7.07;1.37;;;;;;;15.41;69.87;95239.69;5015873;28;20505;-87
2021/05/16 06:55:04;;;;;;;2.90;1.63;;;;;;;15.60;70.07;95247.50;5018029;28;20468;-88
2021/05/16 06:57:31;;;;;;;3.03;0.90;;;;;;;16.62;66.28;95236.97;5015860;28;20472;-89
2021/05/16 06:59:57;;;;;;;2.50;0.90;;;;;;;17.07;63.78;95248.69;5015989;28;20458;-88
2021/05/16 07:02:23;;;;;;;2.80;0.90;;;;;;;17.69;60.60;95248.13;5015517;28;20460;-88
2021/05/16 07:04:50;;;;;;;2.13;1.10;;;;;;;18.43;58.35;95252.66;5016589;28;20820;-90
2021/05/16 07:07:16;;;;;;;2.30;0.90;;;;;;;18.20;59.34;95256.47;5019960;28;20535;-88
2021/05/16 07:09:43;;;;;;;3.33;0.87;;;;;;;17.79;59.97;95258.78;5041281;28;20419;-87
2021/05/16 07:12:10;;;;;;;3.50;1.30;;;;;;;17.00;61.16;95257.88;5034746;28;20591;-87
2021/05/16 07:14:36;;;;;;;2.13;0.70;;;;;;;16.30;63.44;95244.94;5037868;28;20515;-87
2021/05/16 07:17:02;;;;;;;2.73;0.80;;;;;;;16.23;64.39;95242.53;5026082;28;20448;-87
2021/05/16 07:19:28;;;;;;;1.93;0.90;;;;;;;15.97;64.95;95239.22;5027184;28;20854;-88
2021/05/16 07:21:55;;;;;;;2.00;0.83;;;;;;;15.80;65.84;95236.97;5022753;28;20861;-88
2021/05/16 07:24:22;;;;;;;1.63;0.73;;;;;;;15.64;66.80;95241.56;5028810;28;20456;-87
2021/05/16 07:26:48;;;;;;;4.10;0.70;;;;;;;15.36;67.08;95241.47;5023899;28;20536;-88
2021/05/16 07:29:14;;;;;;;1.67;1.07;;;;;;;15.18;67.20;95242.50;5022475;28;20464;-88
2021/05/16 07:31:40;;;;;;;1.70;0.70;;;;;;;14.67;68.51;95233.59;5033043;28;20587;-88
2021/05/16 07:34:06;;;;;;;3.53;0.97;;;;;;;14.74;69.54;95229.94;5021298;28;20448;-89
2021/05/16 07:36:33;;;;;;;1.33;0.80;;;;;;;14.78;69.47;95232.88;5018040;28;20495;-89
2021/05/16 07:39:00;;;;;;;1.73;0.60;;;;;;;14.67;69.39;95226.16;5018265;28;20474;-90
2021/05/16 07:41:26;;;;;;;4.00;1.00;;;;;;;14.54;69.34;95236.94;5018281;28;20432;-90
2021/05/16 07:43:52;;;;;;;3.47;1.33;;;;;;;14.65;69.68;95226.06;5017756;28;20535;-89
2021/05/16 07:46:18;;;;;;;3.33;0.73;;;;;;;14.66;69.44;95226.78;5018372;28;20426;-90
2021/05/16 07:48:45;;;;;;;1.40;0.77;;;;;;;14.82;69.17;95228.34;5019479;28;20468;-90
2021/05/16 07:51:11;;;;;;;2.30;1.20;;;;;;;14.86;67.57;95228.59;5018730;28;20568;-88
2021/05/16 07:53:37;;;;;;;1.70;0.87;;;;;;;14.77;66.70;95234.88;5018477;28;20463;-88
2021/05/16 07:56:05;;;;;;;1.97;1.10;;;;;;;15.35;67.10;95233.91;5020528;28;20443;-88
2021/05/16 07:58:31;;;;;;;2.00;1.13;;;;;;;16.03;66.16;95242.94;5019663;28;20522;-87
2021/05/16 08:00:57;;;;;;;1.90;0.90;;;;;;;16.69;63.04;95235.97;5021168;28;20453;-87
2021/05/16 08:03:23;;;;;;;5.30;0.77;;;;;;;17.31;59.91;95235.44;5025301;28;20436;-87
2021/05/16 08:05:51;;;;;;;3.17;0.90;;;;;;;17.10;59.85;95239.28;5018658;28;20908;-88
2021/05/16 08:08:18;;;;;;;2.93;1.30;;;;;;;17.07;59.65;95235.06;5017680;28;20483;-88
2021/05/16 08:10:44;;;;;;;1.43;0.90;;;;;;;16.74;58.83;95241.00;5018361;28;20847;-88
2021/05/16 08:13:11;;;;;;;4.77;1.10;;;;;;;16.40;61.14;95244.75;5019019;28;20436;-89
2021/05/16 08:15:38;;;;;;;4.83;1.40;;;;;;;16.22;60.97;95249.28;5018617;28;20817;-88
2021/05/16 08:18:05;;;;;;;5.33;1.77;;;;;;;15.63;64.50;95240.16;5018616;28;20474;-89
2021/05/16 08:20:32;;;;;;;4.37;1.23;;;;;;;15.22;67.18;95254.31;5019218;28;20515;-89
2021/05/16 08:22:58;;;;;;;4.57;1.30;;;;;;;14.79;70.46;95243.13;5017713;28;20520;-89
2021/05/16 08:25:25;;;;;;;6.77;1.40;;;;;;;14.34;73.32;95239.94;5019503;28;20461;-88
2021/05/16 08:27:52;;;;;;;2.40;1.00;;;;;;;14.43;73.88;95224.81;5018095;28;20468;-89
2021/05/16 08:30:20;;;;;;;11.20;1.40;;;;;;;14.33;75.63;95224.97;5018858;28;20490;-89
2021/05/16 08:32:47;;;;;;;2.30;0.90;;;;;;;14.28;76.92;95230.72;5018315;28;20455;-89
2021/05/16 08:35:14;;;;;;;3.97;1.20;;;;;;;14.72;77.64;95237.97;5018061;28;20834;-90
2021/05/16 08:37:41;;;;;;;7.60;1.87;;;;;;;15.25;75.52;95234.09;5017203;28;20547;-90
2021/05/16 08:40:09;;;;;;;4.70;1.10;;;;;;;15.90;73.44;95238.19;5017488;28;20448;-90
2021/05/16 08:42:36;;;;;;;3.70;1.50;;;;;;;16.16;69.92;95232.66;5018880;28;20544;-89
2021/05/16 08:45:08;;;;;;;9.13;1.40;;;;;;;16.19;69.79;95236.91;5019428;28;20452;-90
2021/05/16 08:47:35;;;;;;;3.13;1.33;;;;;;;15.76;69.09;95231.31;5019507;28;20870;-90
2021/05/16 08:50:01;;;;;;;4.63;1.40;;;;;;;15.32;69.41;95230.38;5018027;28;20523;-90
2021/05/16 08:52:27;;;;;;;3.93;1.50;;;;;;;15.23;66.15;95220.38;5017442;28;20505;-89
2021/05/16 08:54:53;;;;;;;3.50;1.43;;;;;;;15.46;68.54;95214.09;5017656;28;20523;-89
2021/05/16 08:57:20;;;;;;;4.37;1.53;;;;;;;15.50;67.44;95215.06;5017009;28;20468;-90
2021/05/16 09:00:06;;;;;;;3.20;1.23;;;;;;;15.63;68.67;95224.53;5017382;28;20432;-90
2021/05/16 09:02:32;;;;;;;2.73;1.27;;;;;;;15.69;67.24;95214.00;5017660;28;20452;-90
2021/05/16 09:05:00;;;;;;;8.17;1.97;;;;;;;15.71;66.92;95207.94;5018049;28;20450;-90
2021/05/16 09:07:31;;;;;;;7.83;2.07;;;;;;;15.54;65.45;95211.81;5017378;28;20445;-90
2021/05/16 09:09:57;;;;;;;4.30;0.90;;;;;;;15.54;64.36;95211.81;5017125;28;20908;-89
2021/05/16 09:12:24;;;;;;;4.30;2.13;;;;;;;15.62;64.34;95217.00;5017321;28;20444;-89
2021/05/16 09:14:52;;;;;;;4.13;1.63;;;;;;;15.66;64.52;95209.03;5016864;28;20531;-90
2021/05/16 09:17:22;;;;;;;2.20;1.27;;;;;;;15.85;67.04;95216.81;5017390;28;20521;-89
2021/05/16 09:19:51;;;;;;;8.80;1.87;;;;;;;16.18;64.92;95219.16;5017945;28;20487;-89
2021/05/16 09:22:35;;;;;;;4.00;1.20;;;;;;;16.54;61.68;95210.00;5015446;28;20452;-90
2021/05/16 09:25:13;;;;;;;5.87;1.60;;;;;;;16.87;61.92;95218.44;5016343;28;20410;-89
2021/05/16 09:27:41;;;;;;;2.77;1.60;;;;;;;17.08;61.05;95220.81;5017152;28;20475;-89
2021/05/16 09:30:23;;;;;;;3.57;1.33;;;;;;;16.88;57.75;95219.88;5016308;28;20440;-89
2021/05/16 09:32:52;;;;;;;6.53;1.70;;;;;;;17.08;57.52;95217.38;5016953;28;20983;-89
2021/05/16 09:35:18;;;;;;;4.77;1.50;;;;;;;17.11;56.46;95216.84;5016685;28;20482;-89
2021/05/16 09:38:05;;;;;;;6.30;1.23;;;;;;;17.22;55.09;95217.31;5016349;28;20543;-89
2021/05/16 09:40:33;;;;;;;3.33;1.13;;;;;;;17.30;55.40;95209.50;5016957;28;20479;-90
2021/05/16 09:43:07;;;;;;;15.67;2.53;;;;;;;17.27;55.09;95208.00;5017045;28;20444;-89
2021/05/16 09:45:50;;;;;;;3.03;1.30;;;;;;;17.31;56.06;95203.44;5017367;28;20454;-90
2021/05/16 09:48:19;;;;;;;3.50;1.10;;;;;;;17.64;51.19;95202.88;5017652;28;20840;-90
2021/05/16 09:51:06;;;;;;;3.87;1.10;;;;;;;17.98;51.96;95204.34;5017469;28;20515;-90
2021/05/16 09:53:44;;;;;;;3.77;1.50;;;;;;;18.22;52.01;95199.22;5017415;28;20515;-90
2021/05/16 09:56:14;;;;;;;6.60;2.43;;;;;;;18.24;52.02;95196.56;5017647;28;20833;-91
2021/05/16 09:58:41;;;;;;;5.30;1.70;;;;;;;18.15;52.04;95195.53;5017137;28;20942;-90
2021/05/16 10:01:07;;;;;;;4.13;1.60;;;;;;;18.02;52.35;95188.16;5017040;28;20416;-90
2021/05/16 10:03:34;;;;;;;7.50;1.67;;;;;;;18.18;50.66;95202.47;5016230;28;20527;-90
2021/05/16 10:06:01;;;;;;;6.77;2.27;;;;;;;18.27;50.32;95195.31;5016678;28;20458;-89
2021/05/16 10:08:28;;;;;;;5.43;1.90;;;;;;;18.26;49.49;95193.94;5016596;28;20463;-90
2021/05/16 10:10:56;;;;;;;5.43;1.40;;;;;;;18.05;50.65;95189.63;5016840;28;20590;-87
2021/05/16 10:13:24;;;;;;;2.60;1.50;;;;;;;17.93;49.81;95191.16;5015817;28;20464;-88
2021/05/16 10:15:52;;;;;;;7.27;1.40;;;;;;;17.97;48.67;95172.22;5018831;28;20538;-89
2021/05/16 10:18:20;;;;;;;3.83;1.87;;;;;;;18.04;49.92;95173.88;5017345;28;20468;-90
2021/05/16 10:20:46;;;;;;;5.13;1.93;;;;;;;18.07;49.75;95172.66;5016494;28;20455;-89
2021/05/16 10:23:12;;;;;;;7.73;2.07;;;;;;;18.23;48.94;95164.41;5016853;28;20466;-88
2021/05/16 10:25:40;;;;;;;6.50;2.13;;;;;;;18.40;47.55;95158.97;5016432;28;20459;-88
2021/05/16 10:28:07;;;;;;;2.70;1.10;;;;;;;18.60;46.96;95153.66;5016106;28;20472;-88
2021/05/16 10:30:34;;;;;;;6.70;1.57;;;;;;;18.86;45.41;95157.38;5016853;28;20496;-88
2021/05/16 10:33:00;;;;;;;1.90;0.90;;;;;;;19.04;44.96;95146.47;5015359;28;20459;-88
2021/05/16 10:35:46;;;;;;;3.77;1.40;;;;;;;19.15;44.31;95145.50;5014996;28;20464;-88
2021/05/16 10:38:32;;;;;;;7.73;1.30;;;;;;;19.14;45.46;95147.53;5016819;28;20594;-87
2021/05/16 10:41:14;;;;;;;3.20;1.30;;;;;;;19.17;44.89;95151.06;5018197;28;20452;-88
2021/05/16 10:43:41;;;;;;;3.57;1.03;;;;;;;18.91;44.51;95148.03;5020198;28;20515;-89
2021/05/16 10:46:41;;;;;;;1.60;1.20;;;;;;;18.61;45.17;95146.84;5020327;28;20455;-89
2021/05/16 10:49:23;;;;;;;2.37;1.53;;;;;;;18.60;45.79;95148.19;5019748;28;20472;-88
2021/05/16 10:51:50;;;;;;;4.50;1.10;;;;;;;18.33;45.25;95146.41;5015770;28;20498;-88
2021/05/16 10:54:29;;;;;;;6.63;1.10;;;;;;;17.97;45.23;95139.47;5019306;28;20468;-88
2021/05/16 10:57:12;;;;;;;5.53;1.37;;;;;;;17.72;46.07;95129.56;5018945;28;20447;-89
2021/05/16 10:59:40;;;;;;;5.80;1.43;;;;;;;17.76;46.83;95135.16;5019014;28;20565;-90
2021/05/16 11:02:08;;;;;;;2.57;1.00;;;;;;;18.07;45.94;95128.97;5019861;28;20480;-88
2021/05/16 11:04:46;;;;;;;3.47;1.00;;;;;;;18.09;46.07;95118.81;5019395;28;20456;-89
2021/05/16 11:07:31;;;;;;;8.30;2.07;;;;;;;18.48;45.96;95114.91;5019009;28;20436;-88
2021/05/16 11:10:29;;;;;;;3.30;1.40;;;;;;;18.97;44.95;95112.72;5019861;28;20464;-89
2021/05/16 11:13:06;;;;;;;4.30;1.40;;;;;;;19.27;43.90;95110.38;5019059;28;20440;-88
2021/05/16 11:15:33;;;;;;;1.80;1.10;;;;;;;19.34;42.23;95103.78;5019161;28;20535;-89
2021/05/16 11:18:00;;;;;;;2.00;1.40;;;;;;;19.37;42.60;95099.09;5019124;28;20495;-89
2021/05/16 11:20:26;;;;;;;2.80;1.30;;;;;;;19.67;42.51;95106.34;5019355;28;20468;-88
2021/05/16 11:22:56;;;;;;;3.43;1.00;;;;;;;19.69;41.42;95087.28;5018720;28;20810;-90
2021/05/16 11:25:24;;;;;;;4.50;1.70;;;;;;;19.71;41.54;95081.16;5019551;28;20458;-90
2021/05/16 11:27:50;;;;;;;1.93;1.00;;;;;;;19.47;40.00;95080.31;5018383;28;20452;-89
2021/05/16 11:30:17;;;;;;;8.60;1.30;;;;;;;19.33;42.30;95071.59;5026534;28;20440;-87
2021/05/16 11:32:44;;;;;;;2.83;1.10;;;;;;;19.13;42.69;95071.59;5021702;28;20448;-90
2021/05/16 11:35:17;;;;;;;2.97;1.17;;;;;;;18.87;42.58;95067.88;5023796;28;20471;-91
2021/05/16 11:37:45;;;;;;;3.10;1.00;;;;;;;18.86;42.36;95063.75;5018221;28;20965;-89